Time;durP1;ratioP1;P1;durP2;ratioP2;P2;SDS_P1;SDS_P2;PMS_P1;PMS_P2;Temp;Humidity;BMP_temperature;BMP_pressure;BME280_temperature;BME280_humidity;BME280_pressure;Samples;Min_cycle;Max_cycle;Signal;HPM_P1;HPM_P2
2021/05/13 00:00:15;;;;;;;11.25;9.73;;;;;;;12.48;69.36;99676.22;5016225;28;20502;-68
2021/05/13 00:02:42;;;;;;;10.75;9.23;;;;;;;12.43;69.51;99670.88;5015581;28;20058;-68
2021/05/13 00:05:10;;;;;;;10.95;9.60;;;;;;;12.36;69.93;99662.22;5015296;28;20406;-68
2021/05/13 00:07:38;;;;;;;10.65;9.40;;;;;;;12.27;69.83;99662.34;5015230;28;20069;-67
2021/05/13 00:10:06;;;;;;;11.65;9.77;;;;;;;12.22;70.20;99664.53;5016004;28;20450;-68
2021/05/13 00:12:39;;;;;;;10.90;9.75;;;;;;;12.09;69.89;99664.47;5015846;28;20053;-68
2021/05/13 00:15:10;;;;;;;11.20;9.55;;;;;;;12.00;70.24;99663.78;5015580;28;20058;-68
2021/05/13 00:17:37;;;;;;;12.80;10.38;;;;;;;11.87;70.64;99662.88;5014927;28;20487;-68
2021/05/13 00:20:08;;;;;;;12.73;11.35;;;;;;;11.76;70.71;99665.28;5015269;28;20050;-68
2021/05/13 00:22:35;;;;;;;15.90;11.98;;;;;;;11.67;71.16;99675.69;5015590;28;20054;-68
2021/05/13 00:25:07;;;;;;;15.88;13.20;;;;;;;11.58;71.35;99678.56;5014823;28;20081;-68
2021/05/13 00:27:34;;;;;;;16.02;13.55;;;;;;;11.50;71.53;99675.84;5015491;28;20053;-67
2021/05/13 00:30:01;;;;;;;17.73;13.50;;;;;;;11.42;71.76;99674.75;5015571;28;20058;-67
2021/05/13 00:32:28;;;;;;;14.50;12.70;;;;;;;11.33;71.92;99668.44;5015532;28;20046;-68
2021/05/13 00:34:57;;;;;;;14.20;12.40;;;;;;;11.28;71.77;99660.28;5015345;28;20076;-68
2021/05/13 00:37:24;;;;;;;13.73;12.13;;;;;;;11.24;72.03;99662.09;5015250;28;20053;-68
2021/05/13 00:39:51;;;;;;;14.43;12.20;;;;;;;11.17;72.00;99663.47;5014659;28;20058;-68
2021/05/13 00:42:18;;;;;;;15.45;12.23;;;;;;;11.08;72.17;99671.03;5015131;28;20057;-68
2021/05/13 00:44:46;;;;;;;15.13;12.60;;;;;;;11.03;72.15;99671.25;5014986;28;20046;-69
2021/05/13 00:47:13;;;;;;;14.63;12.73;;;;;;;10.98;72.39;99663.06;5015000;28;20061;-69
2021/05/13 00:49:40;;;;;;;16.00;11.93;;;;;;;10.94;72.68;99665.72;5014947;28;20057;-68
2021/05/13 00:52:08;;;;;;;13.43;12.00;;;;;;;10.90;73.00;99666.75;5015534;28;20050;-67
2021/05/13 00:54:37;;;;;;;14.40;12.15;;;;;;;10.82;72.48;99662.84;5013756;28;20041;-67
2021/05/13 00:57:05;;;;;;;16.33;12.98;;;;;;;10.72;72.44;99658.47;5014775;28;20049;-68
2021/05/13 00:59:34;;;;;;;14.75;12.35;;;;;;;10.68;73.03;99649.16;5014937;28;20054;-68
2021/05/13 01:02:01;;;;;;;15.45;13.05;;;;;;;10.62;72.78;99650.47;5014636;28;20054;-67
2021/05/13 01:04:28;;;;;;;16.13;12.88;;;;;;;10.60;72.84;99649.19;5015028;28;20065;-68
2021/05/13 01:06:56;;;;;;;13.55;12.07;;;;;;;10.55;72.67;99655.78;5014450;28;20494;-68
2021/05/13 01:09:23;;;;;;;21.00;13.50;;;;;;;10.46;72.83;99653.03;5014642;28;20053;-68
2021/05/13 01:11:53;;;;;;;17.50;14.57;;;;;;;10.41;73.07;99650.41;5014760;28;20407;-69
2021/05/13 01:14:23;;;;;;;15.02;13.45;;;;;;;10.36;73.32;99656.19;5014593;28;20050;-67
2021/05/13 01:16:55;;;;;;;16.23;14.23;;;;;;;10.31;73.23;99659.13;5014237;28;20415;-68
2021/05/13 01:19:21;;;;;;;18.83;14.15;;;;;;;10.24;73.13;99656.03;5014256;28;20499;-67
2021/05/13 01:21:49;;;;;;;19.48;15.13;;;;;;;10.16;73.36;99655.72;5014064;28;20057;-68
2021/05/13 01:24:16;;;;;;;20.35;16.92;;;;;;;10.11;73.23;99661.44;5013815;28;20057;-67
2021/05/13 01:26:45;;;;;;;23.48;18.00;;;;;;;10.06;73.35;99664.44;5014479;28;20054;-68
2021/05/13 01:29:13;;;;;;;23.42;17.27;;;;;;;9.98;73.29;99661.66;5014235;28;20061;-67
2021/05/13 01:31:40;;;;;;;25.33;19.40;;;;;;;9.95;73.97;99666.75;5014313;28;20058;-69
2021/05/13 01:34:10;;;;;;;25.95;18.67;;;;;;;9.93;74.19;99657.91;5013935;28;20050;-68
2021/05/13 01:36:37;;;;;;;23.83;18.85;;;;;;;9.92;73.59;99658.22;5013862;28;20061;-68
2021/05/13 01:39:07;;;;;;;24.60;17.90;;;;;;;9.88;73.47;99668.38;5013941;28;20046;-69
2021/05/13 01:41:35;;;;;;;27.10;19.70;;;;;;;9.81;73.51;99656.94;5013317;28;20483;-68
2021/05/13 01:44:02;;;;;;;25.33;18.70;;;;;;;9.75;73.48;99659.88;5013793;28;20065;-68
2021/05/13 01:46:29;;;;;;;24.15;19.50;;;;;;;9.72;74.21;99668.91;5013985;28;20057;-66
2021/05/13 01:48:56;;;;;;;26.23;20.00;;;;;;;9.70;74.26;99662.84;5013571;28;20080;-67
2021/05/13 01:51:26;;;;;;;25.77;19.58;;;;;;;9.65;74.00;99668.56;5014215;28;20484;-68
2021/05/13 01:53:53;;;;;;;32.90;22.20;;;;;;;9.60;73.55;99659.59;5013601;28;20057;-68
2021/05/13 01:56:21;;;;;;;31.88;21.73;;;;;;;9.51;74.15;99654.84;5006489;28;20061;-68
2021/05/13 01:58:48;;;;;;;28.70;19.20;;;;;;;9.52;74.58;99655.66;5013450;28;20057;-68
2021/05/13 02:01:15;;;;;;;28.08;20.38;;;;;;;9.52;74.23;99650.09;5013639;28;20077;-68
2021/05/13 02:03:44;;;;;;;28.33;19.38;;;;;;;9.48;74.24;99649.91;5013834;28;20455;-68
2021/05/13 02:06:12;;;;;;;25.92;19.73;;;;;;;9.45;74.08;99635.84;5013570;28;20062;-68
2021/05/13 02:08:39;;;;;;;25.48;19.35;;;;;;;9.41;73.93;99638.50;5014190;28;20057;-68
2021/05/13 02:11:06;;;;;;;29.33;21.35;;;;;;;9.40;74.35;99636.03;5013451;28;20058;-66
2021/05/13 02:13:34;;;;;;;30.00;22.02;;;;;;;9.36;74.17;99630.31;5012692;28;20529;-68
2021/05/13 02:16:01;;;;;;;32.90;23.77;;;;;;;9.33;75.05;99629.00;5013363;28;20056;-67
2021/05/13 02:18:28;;;;;;;32.40;23.92;;;;;;;9.34;74.30;99625.09;5013950;28;20157;-67
2021/05/13 02:20:55;;;;;;;42.00;27.40;;;;;;;9.29;74.87;99630.78;5012851;28;20117;-66
2021/05/13 02:23:21;;;;;;;41.55;26.65;;;;;;;9.26;74.73;99625.91;5013591;28;20053;-68
2021/05/13 02:25:50;;;;;;;41.80;26.38;;;;;;;9.26;74.72;99620.34;5013477;28;20062;-68
2021/05/13 02:28:18;;;;;;;44.30;27.27;;;;;;;9.25;74.50;99623.44;5013998;28;20046;-68
2021/05/13 02:30:48;;;;;;;38.30;25.85;;;;;;;9.25;74.91;99621.47;5013322;28;20069;-67
2021/05/13 02:33:15;;;;;;;34.67;23.30;;;;;;;9.23;74.31;99620.97;5013113;28;20061;-67
2021/05/13 02:35:41;;;;;;;33.50;22.92;;;;;;;9.23;74.79;99620.97;5013152;28;20057;-68
2021/05/13 02:38:09;;;;;;;32.40;23.30;;;;;;;9.22;74.77;99622.13;5012691;28;20418;-67
2021/05/13 02:40:35;;;;;;;33.22;22.35;;;;;;;9.19;74.69;99608.88;5012366;28;20050;-68
2021/05/13 02:43:04;;;;;;;34.22;22.95;;;;;;;9.19;73.91;99620.00;5013101;28;20060;-68
2021/05/13 02:45:31;;;;;;;33.47;22.50;;;;;;;9.17;73.53;99622.28;5013223;28;20058;-68
2021/05/13 02:47:59;;;;;;;33.38;23.50;;;;;;;9.13;73.82;99626.84;5013221;28;20058;-68
2021/05/13 02:50:26;;;;;;;36.38;25.08;;;;;;;9.12;73.63;99628.00;5012870;28;20050;-66
2021/05/13 02:52:55;;;;;;;39.60;25.05;;;;;;;9.05;74.51;99630.44;5012829;28;20053;-66
2021/05/13 02:55:24;;;;;;;37.95;25.38;;;;;;;9.02;74.86;99629.13;5012734;28;20061;-66
2021/05/13 02:57:50;;;;;;;36.67;24.33;;;;;;;8.99;74.73;99634.50;5012491;28;20046;-66
2021/05/13 03:00:24;;;;;;;40.10;25.65;;;;;;;9.00;74.20;99622.28;5013188;28;20499;-66
2021/05/13 03:02:51;;;;;;;34.50;23.88;;;;;;;8.96;74.51;99612.97;5012698;28;20061;-66
2021/05/13 03:05:22;;;;;;;35.97;24.98;;;;;;;8.98;74.80;99607.91;5012684;28;20399;-66
2021/05/13 03:07:51;;;;;;;32.95;22.77;;;;;;;8.96;73.89;99610.19;5011808;28;20145;-67
2021/05/13 03:10:21;;;;;;;37.60;25.08;;;;;;;8.87;73.75;99610.97;5012266;28;20065;-66
2021/05/13 03:12:51;;;;;;;34.65;24.75;;;;;;;8.80;74.23;99612.59;5012211;28;20061;-66
2021/05/13 03:15:18;;;;;;;32.03;23.60;;;;;;;8.76;74.47;99608.81;5012264;28;20052;-66
2021/05/13 03:17:45;;;;;;;36.50;24.30;;;;;;;8.72;74.44;99603.94;5012938;28;20053;-66
2021/05/13 03:20:15;;;;;;;37.30;24.88;;;;;;;8.69;74.32;99609.31;5012901;28;20058;-66
2021/05/13 03:22:47;;;;;;;39.35;26.88;;;;;;;8.66;74.33;99605.22;5012557;28;20418;-66
2021/05/13 03:25:15;;;;;;;39.28;26.02;;;;;;;8.62;75.13;99600.66;5012150;28;20054;-66
2021/05/13 03:27:45;;;;;;;38.80;25.58;;;;;;;8.63;74.67;99599.50;5012373;28;20074;-66
2021/05/13 03:30:15;;;;;;;38.38;26.17;;;;;;;8.62;75.00;99593.13;5012546;28;20054;-66
2021/05/13 03:32:42;;;;;;;41.75;27.02;;;;;;;8.63;74.70;99594.78;5012485;28;20065;-67
2021/05/13 03:35:10;;;;;;;42.17;28.10;;;;;;;8.60;75.38;99595.41;5012064;28;20056;-66
2021/05/13 03:37:37;;;;;;;40.67;26.58;;;;;;;8.62;74.94;99586.78;5012372;28;20054;-66
2021/05/13 03:40:07;;;;;;;39.08;26.52;;;;;;;8.60;74.71;99598.19;5011677;28;20065;-66
2021/05/13 03:42:34;;;;;;;40.70;25.85;;;;;;;8.58;74.91;99594.09;5012374;28;20057;-67
2021/05/13 03:45:00;;;;;;;31.63;22.75;;;;;;;8.61;74.49;99587.91;5012829;28;20077;-67
2021/05/13 03:47:30;;;;;;;30.77;22.95;;;;;;;8.61;73.98;99587.91;5012438;28;20057;-67
2021/05/13 03:49:57;;;;;;;32.10;23.15;;;;;;;8.58;74.47;99581.03;5012545;28;20057;-67
2021/05/13 03:52:24;;;;;;;30.27;22.88;;;;;;;8.60;74.04;99577.94;5012173;28;20061;-67
2021/05/13 03:54:50;;;;;;;33.55;23.42;;;;;;;8.58;74.72;99569.94;5016020;28;20050;-67
2021/05/13 03:57:18;;;;;;;31.88;23.13;;;;;;;8.59;74.53;99574.34;5016179;28;20060;-67
2021/05/13 03:59:45;;;;;;;29.90;22.50;;;;;;;8.62;73.73;99581.22;5015700;28;20495;-67
2021/05/13 04:02:25;;;;;;;31.05;22.67;;;;;;;8.60;73.71;99583.50;5015911;28;20062;-67
2021/05/13 04:04:51;;;;;;;34.35;23.83;;;;;;;8.59;73.65;99579.06;5015980;28;20042;-67
2021/05/13 04:07:18;;;;;;;33.00;23.73;;;;;;;8.51;73.90;99589.84;5015826;28;20054;-67
2021/05/13 04:09:45;;;;;;;32.78;22.98;;;;;;;8.53;73.81;99587.56;5014990;28;20050;-67
2021/05/13 04:12:12;;;;;;;33.00;22.02;;;;;;;8.54;72.87;99588.38;5015450;28;20050;-67
2021/05/13 04:14:43;;;;;;;31.98;22.13;;;;;;;8.57;73.61;99592.44;5016200;28;20407;-67
2021/05/13 04:17:09;;;;;;;31.02;21.92;;;;;;;8.59;73.56;99592.94;5015742;28;20061;-67
2021/05/13 04:19:36;;;;;;;30.55;22.90;;;;;;;8.67;74.07;99583.81;5015364;28;20509;-67
2021/05/13 04:22:04;;;;;;;27.92;21.08;;;;;;;8.76;74.18;99589.38;5015711;28;20064;-67
2021/05/13 04:24:31;;;;;;;26.08;20.13;;;;;;;8.76;73.59;99581.91;5014649;28;20069;-67
2021/05/13 04:26:58;;;;;;;29.58;21.58;;;;;;;8.76;72.94;99579.13;5015397;28;20475;-67
2021/05/13 04:29:27;;;;;;;30.75;21.17;;;;;;;8.77;72.99;99577.16;5015314;28;20061;-67
2021/05/13 04:31:55;;;;;;;30.92;21.98;;;;;;;8.77;72.65;99575.19;5015197;28;20058;-67
2021/05/13 04:34:22;;;;;;;30.02;21.52;;;;;;;8.75;72.88;99585.81;5015845;28;20502;-67
2021/05/13 04:36:48;;;;;;;30.05;22.83;;;;;;;8.77;73.32;99585.50;5015275;28;20407;-67
2021/05/13 04:39:15;;;;;;;31.00;22.52;;;;;;;8.74;72.98;99585.00;5015218;28;20057;-67
2021/05/13 04:41:42;;;;;;;35.40;23.33;;;;;;;8.70;73.51;99575.69;5015293;28;20202;-67
2021/05/13 04:44:09;;;;;;;33.60;23.35;;;;;;;8.73;73.44;99577.81;5014965;28;20056;-67
2021/05/13 04:46:37;;;;;;;29.42;22.50;;;;;;;8.79;73.51;99581.25;5014999;28;20061;-67
2021/05/13 04:49:17;;;;;;;30.55;20.67;;;;;;;8.88;72.69;99570.97;5015172;28;20065;-67
2021/05/13 04:51:46;;;;;;;25.83;20.50;;;;;;;8.97;72.22;99570.97;5015201;28;20058;-67
2021/05/13 04:54:15;;;;;;;24.08;18.55;;;;;;;9.02;72.69;99565.25;5014616;28;20057;-67
2021/05/13 04:56:42;;;;;;;27.05;19.85;;;;;;;9.06;72.05;99570.97;5014884;28;20474;-67
2021/05/13 04:59:10;;;;;;;26.40;20.27;;;;;;;9.10;72.43;99560.84;5015088;28;20491;-67
2021/05/13 05:01:37;;;;;;;26.90;19.77;;;;;;;9.16;72.44;99559.53;5014716;28;20058;-67
2021/05/13 05:04:05;;;;;;;27.13;21.00;;;;;;;9.22;72.94;99558.22;5014707;28;20050;-67
2021/05/13 05:06:33;;;;;;;28.95;22.50;;;;;;;9.26;72.64;99561.16;5014586;28;20051;-67
2021/05/13 05:09:00;;;;;;;27.90;20.98;;;;;;;9.29;72.64;99558.53;5014147;28;20046;-67
2021/05/13 05:11:27;;;;;;;32.72;24.05;;;;;;;9.34;72.47;99561.16;5014952;28;20058;-67
2021/05/13 05:13:54;;;;;;;31.45;23.20;;;;;;;9.42;72.64;99547.56;5014783;28;20058;-67
2021/05/13 05:16:21;;;;;;;29.73;22.00;;;;;;;9.53;73.11;99554.41;5014453;28;20058;-67
2021/05/13 05:18:48;;;;;;;26.88;20.33;;;;;;;9.64;72.37;99558.50;5014584;28;20058;-67
2021/05/13 05:21:15;;;;;;;25.38;20.33;;;;;;;9.76;72.21;99546.69;5014563;28;20060;-67
2021/05/13 05:23:42;;;;;;;24.88;19.52;;;;;;;9.81;71.86;99546.50;5013861;28;20050;-67
2021/05/13 05:26:09;;;;;;;25.00;20.15;;;;;;;9.90;70.99;99541.72;5013790;28;20049;-67
2021/05/13 05:28:36;;;;;;;23.50;18.55;;;;;;;10.00;71.47;99548.91;5014192;28;20064;-66
2021/05/13 05:31:03;;;;;;;24.55;19.55;;;;;;;10.07;71.28;99549.19;5011938;28;20080;-67
2021/05/13 05:33:30;;;;;;;24.75;19.85;;;;;;;10.19;70.75;99544.91;5013508;28;20054;-68
2021/05/13 05:35:57;;;;;;;24.58;19.23;;;;;;;10.22;70.60;99542.25;5013847;28;20046;-67
2021/05/13 05:38:25;;;;;;;25.85;20.02;;;;;;;10.33;70.55;99543.53;5014580;28;20525;-67
2021/05/13 05:40:52;;;;;;;26.90;21.05;;;;;;;10.43;70.50;99541.50;5014486;28;20054;-68
2021/05/13 05:43:19;;;;;;;25.13;20.30;;;;;;;10.56;70.23;99538.50;5014792;28;20046;-67
2021/05/13 05:45:46;;;;;;;26.23;21.17;;;;;;;10.59;70.24;99541.75;5014139;28;20054;-68
2021/05/13 05:48:13;;;;;;;27.05;20.45;;;;;;;10.71;70.06;99539.88;5014175;28;20057;-67
2021/05/13 05:50:43;;;;;;;25.45;20.08;;;;;;;10.80;70.19;99537.00;5013733;28;20046;-68
2021/05/13 05:53:11;;;;;;;27.40;21.05;;;;;;;10.93;70.12;99529.53;5013893;28;20050;-67
2021/05/13 05:55:39;;;;;;;26.88;21.95;;;;;;;10.95;70.16;99533.63;5014038;28;20626;-67
2021/05/13 05:58:06;;;;;;;29.35;22.45;;;;;;;11.04;70.40;99518.78;5013753;28;20054;-67
2021/05/13 06:00:33;;;;;;;24.58;20.70;;;;;;;11.17;70.38;99520.47;5013089;28;20407;-67
2021/05/13 06:03:00;;;;;;;21.95;18.60;;;;;;;11.28;69.98;99518.91;5014051;28;20053;-67
2021/05/13 06:05:28;;;;;;;21.38;17.42;;;;;;;11.35;69.95;99519.16;5012679;28;20050;-67
2021/05/13 06:07:55;;;;;;;20.60;18.42;;;;;;;11.47;70.07;99514.78;5013154;28;20061;-67
2021/05/13 06:10:22;;;;;;;19.23;17.15;;;;;;;11.62;69.82;99510.53;5013939;28;20050;-67
2021/05/13 06:12:50;;;;;;;23.38;19.30;;;;;;;11.75;69.42;99509.38;5013447;28;20057;-67
2021/05/13 06:15:18;;;;;;;20.10;18.00;;;;;;;11.88;69.45;99505.47;5012503;28;20511;-67
2021/05/13 06:17:46;;;;;;;21.25;18.80;;;;;;;11.96;68.75;99504.56;5012710;28;20058;-67
2021/05/13 06:20:23;;;;;;;19.63;17.63;;;;;;;12.11;68.93;99502.25;5013510;28;20054;-67
2021/05/13 06:22:50;;;;;;;20.23;16.83;;;;;;;12.25;69.26;99493.53;5017856;28;20459;-67
2021/05/13 06:25:17;;;;;;;20.35;18.15;;;;;;;12.38;68.22;99492.34;5011572;28;20054;-67
2021/05/13 06:27:47;;;;;;;19.60;17.52;;;;;;;12.54;67.65;99496.06;5011508;28;20513;-67
2021/05/13 06:30:17;;;;;;;20.50;17.67;;;;;;;12.66;66.88;99492.44;5011880;28;20482;-67
2021/05/13 06:32:45;;;;;;;19.58;16.67;;;;;;;12.75;66.80;99500.69;5012245;28;20050;-67
2021/05/13 06:35:13;;;;;;;19.55;16.45;;;;;;;12.91;67.22;99495.16;5013331;28;20054;-68
2021/05/13 06:37:40;;;;;;;18.25;16.35;;;;;;;12.99;67.21;99495.00;5012618;28;20402;-68
2021/05/13 06:40:08;;;;;;;17.92;16.10;;;;;;;13.15;66.75;99491.47;5012895;28;20061;-68
2021/05/13 06:42:35;;;;;;;17.98;16.17;;;;;;;13.30;66.51;99487.91;5013150;28;20056;-68
2021/05/13 06:45:04;;;;;;;17.23;15.38;;;;;;;13.44;65.79;99493.09;5013206;28;20060;-68
2021/05/13 06:47:32;;;;;;;18.08;16.27;;;;;;;13.58;65.51;99490.66;5011423;28;20072;-68
2021/05/13 06:49:59;;;;;;;19.33;17.33;;;;;;;13.71;65.64;99479.41;5012345;28;20061;-68
2021/05/13 06:52:25;;;;;;;19.90;17.80;;;;;;;13.81;65.65;99470.47;5013046;28;20058;-68
2021/05/13 06:54:52;;;;;;;20.92;18.40;;;;;;;13.89;65.02;99468.69;5012491;28;20407;-68
2021/05/13 06:57:19;;;;;;;20.25;18.00;;;;;;;13.97;64.88;99476.09;5011757;28;20050;-67
2021/05/13 06:59:46;;;;;;;18.90;16.92;;;;;;;14.14;64.73;99470.09;5012668;28;20054;-67
2021/05/13 07:02:14;;;;;;;19.67;17.67;;;;;;;14.25;64.57;99475.16;5011111;28;20064;-67
2021/05/13 07:04:44;;;;;;;20.48;18.35;;;;;;;14.34;64.79;99473.78;4998797;28;20049;-66
2021/05/13 07:07:12;;;;;;;20.13;17.95;;;;;;;14.50;64.58;99472.94;5011834;28;20049;-66
2021/05/13 07:09:39;;;;;;;18.98;16.92;;;;;;;14.63;63.67;99479.25;5012477;28;20057;-66
2021/05/13 07:12:06;;;;;;;18.55;16.60;;;;;;;14.74;63.48;99469.06;5011195;28;20054;-66
2021/05/13 07:14:33;;;;;;;18.95;16.23;;;;;;;14.87;63.63;99472.59;5011564;28;20060;-67
2021/05/13 07:17:00;;;;;;;18.17;16.38;;;;;;;14.99;63.10;99462.03;5009157;28;20053;-67
2021/05/13 07:19:27;;;;;;;19.98;17.88;;;;;;;15.10;63.67;99464.22;5011655;28;20050;-66
2021/05/13 07:21:55;;;;;;;17.25;15.45;;;;;;;15.22;62.78;99459.28;5009190;28;20061;-67
2021/05/13 07:24:23;;;;;;;17.77;15.60;;;;;;;15.40;63.51;99458.81;5007953;28;20108;-67
2021/05/13 07:26:49;;;;;;;17.52;15.68;;;;;;;15.57;61.83;99460.31;5016700;28;20057;-67
2021/05/13 07:29:16;;;;;;;16.48;14.88;;;;;;;16.06;60.92;99459.59;5013261;28;20050;-67
2021/05/13 07:31:43;;;;;;;16.23;14.52;;;;;;;17.53;56.81;99457.94;5011864;28;20058;-68
2021/05/13 07:34:12;;;;;;;14.68;13.25;;;;;;;19.13;51.98;99451.06;5012348;28;20053;-68
2021/05/13 07:36:40;;;;;;;13.05;11.80;;;;;;;20.48;48.05;99447.59;5015350;28;20388;-68
2021/05/13 07:39:08;;;;;;;12.68;11.48;;;;;;;21.59;44.70;99448.41;5013912;28;20054;-68
2021/05/13 07:41:35;;;;;;;13.60;12.20;;;;;;;22.61;42.70;99447.16;5019336;28;20057;-68
2021/05/13 07:44:05;;;;;;;11.52;10.43;;;;;;;23.46;39.67;99445.34;5015144;28;20483;-66
2021/05/13 07:46:36;;;;;;;10.60;9.60;;;;;;;24.30;37.38;99440.78;5019122;28;20497;-66
2021/05/13 07:49:04;;;;;;;10.30;9.30;;;;;;;25.09;35.97;99438.47;5012919;28;20072;-66
2021/05/13 07:51:35;;;;;;;9.82;8.93;;;;;;;25.94;34.36;99442.75;5015174;28;20053;-67
2021/05/13 07:54:02;;;;;;;9.50;8.60;;;;;;;26.76;32.29;99436.97;5019630;28;20054;-67
2021/05/13 07:56:30;;;;;;;7.15;6.45;;;;;;;27.45;29.34;99433.75;5013695;28;20046;-66
2021/05/13 07:58:57;;;;;;;7.00;6.15;;;;;;;28.25;27.41;99429.94;5013544;28;20057;-65
2021/05/13 08:01:23;;;;;;;6.82;5.90;;;;;;;28.99;27.54;99419.94;5015872;28;20475;-67
2021/05/13 08:03:50;;;;;;;6.00;5.50;;;;;;;29.67;26.40;99425.13;5016247;28;20512;-67
2021/05/13 08:06:17;;;;;;;5.85;5.35;;;;;;;30.64;24.81;99436.28;5015393;28;20050;-67
2021/05/13 08:08:44;;;;;;;6.22;5.60;;;;;;;31.40;23.29;99429.97;5016078;28;20414;-67
2021/05/13 08:11:11;;;;;;;8.02;6.03;;;;;;;31.81;22.59;99430.47;5015988;28;20060;-67
2021/05/13 08:13:39;;;;;;;5.40;4.80;;;;;;;32.35;21.82;99426.53;5015643;28;20112;-67
2021/05/13 08:16:06;;;;;;;6.53;5.93;;;;;;;32.95;21.76;99433.28;5015775;28;20045;-67
2021/05/13 08:18:33;;;;;;;4.88;3.70;;;;;;;33.69;20.08;99423.09;5015457;28;20058;-67
2021/05/13 08:21:01;;;;;;;6.85;4.90;;;;;;;34.16;18.81;99424.88;5015267;28;20058;-67
2021/05/13 08:23:27;;;;;;;3.60;3.20;;;;;;;34.96;18.03;99418.81;5015123;28;20818;-67
2021/05/13 08:25:54;;;;;;;6.07;4.30;;;;;;;35.58;16.52;99416.50;5015007;28;20061;-67
2021/05/13 08:28:21;;;;;;;3.95;3.55;;;;;;;35.98;16.16;99422.63;5015631;28;20058;-67
2021/05/13 08:30:51;;;;;;;3.95;3.08;;;;;;;36.67;15.19;99425.41;5015090;28;20050;-68
2021/05/13 08:33:18;;;;;;;5.32;3.72;;;;;;;37.11;15.12;99412.38;5015167;28;20058;-68
2021/05/13 08:35:45;;;;;;;5.18;3.50;;;;;;;37.45;14.78;99415.31;5015069;28;20053;-68
2021/05/13 08:38:12;;;;;;;4.43;3.63;;;;;;;37.83;14.39;99412.94;5014302;28;20065;-68
2021/05/13 08:40:39;;;;;;;4.55;3.40;;;;;;;38.06;14.63;99404.19;5014540;28;20387;-67
2021/05/13 08:43:23;;;;;;;4.78;3.35;;;;;;;38.67;13.46;99406.09;5014832;28;20471;-67
2021/05/13 08:45:56;;;;;;;5.45;3.40;;;;;;;39.34;13.03;99412.88;5014751;28;20057;-68
2021/05/13 08:48:25;;;;;;;4.07;3.47;;;;;;;40.14;12.54;99407.94;5014658;28;20392;-68
2021/05/13 08:50:52;;;;;;;4.13;3.35;;;;;;;40.21;12.31;99407.31;5014741;28;20062;-68
2021/05/13 08:53:19;;;;;;;5.18;3.67;;;;;;;40.64;11.55;99403.63;5015993;28;20407;-68
2021/05/13 08:55:46;;;;;;;4.93;3.90;;;;;;;41.11;11.23;99409.09;5014262;28;20491;-65
2021/05/13 08:58:13;;;;;;;5.28;3.45;;;;;;;41.10;11.28;99403.81;5014695;28;20064;-66
2021/05/13 09:00:50;;;;;;;3.88;3.50;;;;;;;41.17;10.32;99401.06;5014691;28;20061;-66
2021/05/13 09:03:33;;;;;;;5.15;3.95;;;;;;;41.92;10.87;99396.34;5014640;28;20056;-66
2021/05/13 09:06:00;;;;;;;19.90;12.45;;;;;;;41.92;11.07;99401.44;5014677;28;20050;-66
2021/05/13 09:08:27;;;;;;;3.95;3.47;;;;;;;42.16;9.80;99394.59;5014735;28;20058;-67
2021/05/13 09:10:54;;;;;;;8.13;6.57;;;;;;;42.57;9.57;99390.31;5014344;28;20069;-66
2021/05/13 09:13:28;;;;;;;4.53;4.00;;;;;;;42.89;9.73;99384.28;5014546;28;20520;-65
2021/05/13 09:15:55;;;;;;;4.13;3.60;;;;;;;43.24;8.93;99385.06;5014407;28;20058;-65
2021/05/13 09:18:34;;;;;;;4.22;3.83;;;;;;;42.91;9.62;99378.66;5014089;28;20056;-65
2021/05/13 09:21:05;;;;;;;4.88;3.25;;;;;;;43.56;9.18;99373.06;5014090;28;20058;-65
2021/05/13 09:23:32;;;;;;;4.93;3.65;;;;;;;43.55;9.08;99374.41;5014444;28;20396;-66
2021/05/13 09:26:10;;;;;;;5.07;3.43;;;;;;;43.96;9.42;99375.75;5013904;28;20050;-66
2021/05/13 09:28:38;;;;;;;3.28;2.92;;;;;;;43.78;8.77;99365.84;5014274;28;20459;-66
2021/05/13 09:31:06;;;;;;;4.85;4.18;;;;;;;43.31;8.86;99368.94;5013952;28;20415;-66
2021/05/13 09:33:38;;;;;;;4.97;3.90;;;;;;;43.76;8.96;99373.63;5014237;28;20054;-67
2021/05/13 09:36:19;;;;;;;4.43;3.17;;;;;;;44.38;8.40;99363.13;5012118;28;20054;-66
2021/05/13 09:38:46;;;;;;;4.00;3.30;;;;;;;44.69;8.49;99369.13;5014811;28;20379;-67
2021/05/13 09:41:26;;;;;;;4.63;3.42;;;;;;;44.84;8.37;99368.44;5013446;28;20050;-68
2021/05/13 09:43:54;;;;;;;4.55;2.97;;;;;;;45.16;8.00;99370.88;5012856;28;20058;-67
2021/05/13 09:46:32;;;;;;;3.92;2.75;;;;;;;41.88;9.61;99360.78;5013284;28;20061;-68
2021/05/13 09:48:59;;;;;;;;;;;;;;;39.92;11.03;99368.94;5012562;28;20056;-68
2021/05/13 09:51:27;;;;;;;;;;;;;;;41.43;10.91;99367.41;5012209;28;19928;-68
2021/05/13 09:54:07;;;;;;;;;;;;;;;41.59;11.06;99374.38;5013314;28;19926;-68
2021/05/13 09:56:34;;;;;;;;;;;;;;;42.16;10.43;99368.25;5010754;28;19936;-69
2021/05/13 09:59:19;;;;;;;;;;;;;;;43.17;9.95;99359.38;5009906;28;19921;-69
2021/05/13 10:01:46;;;;;;;;;;;;;;;44.51;9.27;99365.94;5008549;28;19922;-70
2021/05/13 10:04:13;;;;;;;;;;;;;;;44.73;8.22;99355.66;5014667;28;19921;-71
2021/05/13 10:06:40;;;;;;;;;;;;;;;45.45;7.65;99356.81;5009554;28;19941;-69
2021/05/13 10:09:07;;;;;;;;;;;;;;;45.49;8.40;99360.16;5013652;28;19921;-69
2021/05/13 10:11:34;;;;;;;;;;;;;;;44.53;8.29;99357.34;5010998;28;19932;-69
2021/05/13 10:14:02;;;;;;;;;;;;;;;41.33;10.57;99358.31;5013558;28;20249;-69
2021/05/13 10:16:28;;;;;;;;;;;;;;;39.07;11.83;99363.00;5012780;28;19941;-69
2021/05/13 10:18:56;;;;;;;;;;;;;;;39.64;11.56;99365.47;5010727;28;20290;-69
2021/05/13 10:21:24;;;;;;;;;;;;;;;40.06;10.79;99357.38;5012302;28;19929;-69
2021/05/13 10:23:53;;;;;;;;;;;;;;;39.07;11.52;99350.59;5013530;28;19928;-69
2021/05/13 10:26:43;;;;;;;;;;;;;;;40.00;11.08;99353.72;5013498;28;19921;-69
2021/05/13 10:29:28;;;;;;;;;;;;;;;40.89;10.57;99351.03;5003510;28;19928;-69
2021/05/13 10:32:03;;;;;;;;;;;;;;;40.11;11.23;99339.00;5013648;28;20278;-69
2021/05/13 10:34:48;;;;;;;;;;;;;;;42.49;9.24;99336.72;5012041;28;19937;-69
2021/05/13 10:37:17;;;;;;;;;;;;;;;43.69;8.63;99333.31;5004224;28;20290;-69
2021/05/13 10:39:58;;;;;;;;;;;;;;;44.51;7.49;99335.78;5013615;28;20294;-68
2021/05/13 10:42:32;;;;;;;;;;;;;;;45.43;7.76;99336.03;5013273;28;20392;-68
2021/05/13 10:44:59;;;;;;;;;;;;;;;46.73;6.37;99331.28;5013504;28;19921;-69
2021/05/13 10:47:29;;;;;;;;;;;;;;;47.45;6.00;99322.94;5013388;28;19921;-69
2021/05/13 10:49:55;;;;;;;;;;;;;;;48.05;6.09;99320.03;5012730;28;19922;-69
2021/05/13 10:52:32;;;;;;;;;;;;;;;48.57;6.20;99320.78;5012557;28;19922;-69
2021/05/13 10:54:59;;;;;;;;;;;;;;;49.48;5.62;99319.28;5012706;28;19921;-69
2021/05/13 10:57:25;;;;;;;;;;;;;;;49.66;5.43;99322.91;5013464;28;20371;-68
2021/05/13 11:00:10;;;;;;;;;;;;;;;49.50;4.90;99320.25;5013213;28;19926;-68
2021/05/13 11:02:38;;;;;;;;;;;;;;;50.43;5.37;99313.38;5013197;28;19932;-68
2021/05/13 11:05:44;;;;;;;;;;;;;;;50.23;4.73;99312.56;5013017;28;19925;-68
2021/05/13 11:08:26;;;;;;;;;;;;;;;50.35;5.08;99313.50;4971738;28;19922;-68
2021/05/13 11:10:57;;;;;;;;;;;;;;;49.51;4.86;99309.94;4970672;28;20380;-68
2021/05/13 11:13:37;;;;;;;;;;;;;;;45.89;6.37;99309.53;4997520;28;19932;-68
2021/05/13 11:16:04;;;;;;;;;;;;;;;42.89;8.12;99310.28;5013583;28;19932;-68
2021/05/13 11:18:32;;;;;;;;;;;;;;;42.84;8.90;99306.13;5013112;28;20371;-68
2021/05/13 11:20:59;;;;;;;;;;;;;;;43.44;8.10;99304.34;5013292;28;19921;-67
2021/05/13 11:23:30;;;;;;;;;;;;;;;41.22;9.46;99305.88;5012590;28;20387;-68
2021/05/13 11:25:58;;;;;;;;;;;;;;;39.14;10.35;99301.28;4993384;28;19922;-68
2021/05/13 11:28:31;;;;;;;;;;;;;;;37.30;11.58;99301.50;4993152;28;19930;-68
2021/05/13 11:31:10;;;;;;;;;;;;;;;36.28;12.34;99307.09;4993285;28;20341;-69
2021/05/13 11:33:42;;;;;;;;;;;;;;;37.25;11.99;99308.09;4993308;28;19929;-68
2021/05/13 11:36:09;;;;;;;;;;;;;;;40.05;10.73;99304.09;4993348;28;19929;-68
2021/05/13 11:38:36;;;;;;;;;;;;;;;41.91;9.55;99304.06;4999165;28;19921;-68
2021/05/13 11:41:03;;;;;;;;;;;;;;;43.19;8.30;99304.69;5012727;28;19928;-68
2021/05/13 11:43:32;;;;;;;;;;;;;;;42.93;8.34;99296.06;5013455;28;19921;-69